Time;durP1;ratioP1;P1;durP2;ratioP2;P2;SDS_P1;SDS_P2;PMS_P1;PMS_P2;Temp;Humidity;BMP_temperature;BMP_pressure;BME280_temperature;BME280_humidity;BME280_pressure;Samples;Min_cycle;Max_cycle;Signal;HPM_P1;HPM_P2
2023/06/11 00:00:09;;;;;;;11.55;10.45;;;19.30;99.90;;;;;;5073538;28;20055;-68
2023/06/11 00:02:35;;;;;;;11.95;9.77;;;19.30;99.90;;;;;;5073258;28;20029;-68
2023/06/11 00:05:07;;;;;;;13.80;10.93;;;19.40;1.00;;;;;;5073471;28;20026;-68
2023/06/11 00:07:34;;;;;;;12.53;11.23;;;19.30;1.00;;;;;;5073144;28;20036;-67
2023/06/11 00:10:00;;;;;;;11.18;10.02;;;19.20;1.00;;;;;;5073212;28;20059;-68
2023/06/11 00:12:26;;;;;;;13.43;10.07;;;19.20;99.90;;;;;;5073356;28;20025;-68
2023/06/11 00:14:51;;;;;;;12.85;10.27;;;19.20;99.90;;;;;;5073426;28;20055;-68
2023/06/11 00:17:17;;;;;;;10.88;9.77;;;19.20;99.90;;;;;;5073392;28;20020;-67
2023/06/11 00:19:43;;;;;;;11.45;9.00;;;19.10;99.90;;;;;;5073203;28;20036;-68
2023/06/11 00:22:08;;;;;;;13.10;10.07;;;19.10;99.90;;;;;;5073368;28;20432;-68
2023/06/11 00:24:34;;;;;;;10.07;9.18;;;19.10;1.00;;;;;;5073251;28;20025;-68
2023/06/11 00:27:01;;;;;;;11.38;9.68;;;19.10;1.00;;;;;;5073231;28;20462;-67
2023/06/11 00:29:27;;;;;;;10.77;9.70;;;19.00;1.00;;;;;;5073171;28;20478;-68
2023/06/11 00:31:54;;;;;;;11.43;10.07;;;19.00;1.00;;;;;;5073457;28;20025;-68
2023/06/11 00:34:19;;;;;;;13.38;9.38;;;19.00;1.00;;;;;;5073253;28;20075;-68
2023/06/11 00:36:45;;;;;;;10.52;9.38;;;19.00;1.00;;;;;;5073146;28;20041;-67
2023/06/11 00:39:11;;;;;;;12.10;9.73;;;18.90;1.00;;;;;;5073074;28;20067;-68
2023/06/11 00:41:38;;;;;;;11.73;9.77;;;19.00;1.00;;;;;;5073216;28;20063;-68
2023/06/11 00:44:03;;;;;;;11.15;9.65;;;18.90;1.00;;;;;;5071962;28;20044;-67
2023/06/11 00:46:31;;;;;;;10.95;9.70;;;19.00;1.00;;;;;;5072819;28;20024;-67
2023/06/11 00:48:58;;;;;;;12.70;10.27;;;18.90;1.00;;;;;;5072964;28;20017;-68
2023/06/11 00:51:24;;;;;;;12.45;9.90;;;18.90;99.90;;;;;;5073294;28;20028;-67
2023/06/11 00:53:53;;;;;;;13.52;9.50;;;18.90;1.00;;;;;;5073083;28;20025;-67
2023/06/11 00:56:19;;;;;;;13.70;9.60;;;18.90;1.00;;;;;;5072645;28;20335;-68
2023/06/11 00:58:46;;;;;;;10.80;9.70;;;18.90;99.90;;;;;;5072890;28;20112;-68
2023/06/11 01:01:17;;;;;;;11.52;9.57;;;18.90;1.00;;;;;;5072991;28;20445;-68
2023/06/11 01:03:43;;;;;;;12.63;9.85;;;18.90;99.90;;;;;;5072826;28;20029;-68
2023/06/11 01:06:13;;;;;;;14.32;10.40;;;18.90;99.90;;;;;;5072936;28;20048;-67
2023/06/11 01:08:39;;;;;;;11.10;9.90;;;18.90;99.90;;;;;;5072635;28;20093;-68
2023/06/11 01:11:09;;;;;;;11.45;9.88;;;18.90;99.90;;;;;;5072783;28;20031;-68
2023/06/11 01:13:38;;;;;;;11.55;10.32;;;18.90;99.90;;;;;;5072910;28;20032;-68
2023/06/11 01:16:11;;;;;;;11.68;10.00;;;18.90;99.90;;;;;;5072654;28;20025;-68
2023/06/11 01:18:43;;;;;;;;;;;18.90;99.00;;;;;;5073181;28;20115;-68
2023/06/11 01:21:13;;;;;;;11.95;9.93;;;18.80;99.90;;;;;;5072834;28;20373;-68
2023/06/11 01:23:46;;;;;;;13.68;10.45;;;18.90;1.40;;;;;;5072619;28;20052;-67
2023/06/11 01:28:56;;;;;;;12.50;10.43;;;18.90;86.40;;;;;;5111255;27;20380;-68
2023/06/11 01:31:23;;;;;;;11.77;9.82;;;18.80;99.90;;;;;;5111336;28;20020;-68
2023/06/11 01:33:48;;;;;;;12.45;10.15;;;18.80;1.00;;;;;;5111222;28;20389;-68
2023/06/11 01:36:14;;;;;;;13.77;9.77;;;18.90;80.00;;;;;;5111206;28;20114;-68
2023/06/11 01:38:42;;;;;;;11.00;9.82;;;18.90;1.00;;;;;;5110974;28;20031;-68
2023/06/11 01:41:10;;;;;;;16.00;10.20;;;18.80;1.00;;;;;;5111210;28;20078;-68
2023/06/11 01:43:35;;;;;;;10.68;9.57;;;18.80;1.00;;;;;;5110912;28;20111;-68
2023/06/11 01:46:03;;;;;;;12.90;10.13;;;18.80;1.00;;;;;;5111115;28;20524;-68
2023/06/11 01:48:28;;;;;;;11.73;10.52;;;18.80;1.00;;;;;;5109634;28;20106;-68
2023/06/11 01:50:54;;;;;;;12.07;10.50;;;18.80;99.90;;;;;;5110371;28;20131;-68
2023/06/11 01:53:20;;;;;;;11.32;10.13;;;18.80;99.90;;;;;;5110736;28;20020;-68
2023/06/11 01:55:45;;;;;;;12.25;10.32;;;18.80;1.00;;;;;;5110668;28;20362;-68
2023/06/11 01:58:11;;;;;;;12.55;9.77;;;18.80;1.00;;;;;;5110603;28;20028;-68
2023/06/11 02:00:37;;;;;;;12.45;10.30;;;18.70;1.00;;;;;;5110807;28;20031;-68
2023/06/11 02:03:05;;;;;;;13.38;10.40;;;18.80;1.00;;;;;;5110755;28;20036;-68
2023/06/11 02:05:31;;;;;;;11.48;10.20;;;18.70;1.00;;;;;;5110503;28;20481;-68
2023/06/11 02:07:56;;;;;;;13.60;10.43;;;18.70;1.00;;;;;;5110498;28;20057;-67
2023/06/11 02:10:22;;;;;;;12.23;10.20;;;18.70;1.00;;;;;;5110333;28;20112;-67
2023/06/11 02:12:47;;;;;;;13.73;10.32;;;18.70;1.00;;;;;;5110310;28;20027;-67
2023/06/11 02:15:13;;;;;;;14.05;10.30;;;18.60;1.00;;;;;;5110444;28;20081;-68
2023/06/11 02:17:38;;;;;;;12.45;10.10;;;18.60;63.20;;;;;;5110421;28;20032;-67
2023/06/11 02:20:06;;;;;;;11.68;10.48;;;18.60;1.00;;;;;;5110356;28;20056;-68
2023/06/11 02:22:33;;;;;;;11.57;9.07;;;18.60;99.90;;;;;;5110308;27;20028;-67
2023/06/11 02:24:59;;;;;;;11.65;10.45;;;18.60;41.90;;;;;;5110239;28;20028;-67
2023/06/11 02:27:25;;;;;;;11.77;10.55;;;18.60;19.40;;;;;;5108499;28;20051;-67
2023/06/11 02:29:50;;;;;;;12.25;9.85;;;18.60;99.90;;;;;;5110178;28;20385;-67
2023/06/11 02:32:16;;;;;;;11.73;10.55;;;18.50;99.90;;;;;;5109944;28;20538;-67
2023/06/11 02:34:41;;;;;;;12.05;10.73;;;18.50;99.90;;;;;;5110043;28;20024;-67
2023/06/11 02:37:08;;;;;;;11.98;10.75;;;18.50;99.90;;;;;;5109895;28;20028;-67
2023/06/11 02:39:34;;;;;;;11.55;10.45;;;18.40;99.90;;;;;;5099923;28;20078;-68
2023/06/11 02:42:00;;;;;;;12.48;10.90;;;18.40;1.00;;;;;;5096341;28;20039;-67
2023/06/11 02:44:25;;;;;;;12.30;11.00;;;18.40;40.80;;;;;;5096439;28;20482;-67
2023/06/11 02:46:51;;;;;;;13.27;10.70;;;18.30;99.90;;;;;;5095999;28;20032;-67
2023/06/11 02:49:16;;;;;;;13.77;11.18;;;18.30;99.90;;;;;;5096228;28;20028;-67
2023/06/11 02:51:42;;;;;;;14.10;10.80;;;18.40;85.80;;;;;;5096054;28;20028;-68
2023/06/11 02:54:08;;;;;;;12.75;10.77;;;18.30;99.90;;;;;;5096167;28;20028;-67
2023/06/11 02:56:33;;;;;;;11.30;10.10;;;18.20;99.90;;;;;;5096201;28;20039;-67
2023/06/11 02:58:59;;;;;;;13.30;11.07;;;18.20;99.90;;;;;;5095900;28;20020;-67
2023/06/11 03:01:25;;;;;;;11.98;10.77;;;18.20;1.00;;;;;;5095925;28;20028;-67
2023/06/11 03:03:50;;;;;;;11.68;10.48;;;18.20;1.00;;;;;;5095851;28;20043;-67
2023/06/11 03:06:16;;;;;;;12.65;11.07;;;18.10;1.00;;;;;;5095953;28;20038;-68
2023/06/11 03:08:41;;;;;;;12.60;11.30;;;18.10;12.60;;;;;;5095669;28;20032;-67
2023/06/11 03:11:07;;;;;;;12.27;11.02;;;18.00;99.90;;;;;;5095617;28;20470;-67
2023/06/11 03:13:32;;;;;;;11.80;10.60;;;18.00;99.90;;;;;;5095668;28;20082;-67
2023/06/11 03:15:58;;;;;;;15.93;11.43;;;18.00;99.90;;;;;;5095759;28;20024;-67
2023/06/11 03:18:23;;;;;;;13.45;11.38;;;18.00;1.00;;;;;;5095668;28;20420;-67
2023/06/11 03:20:49;;;;;;;13.70;10.60;;;17.90;1.00;;;;;;5095630;28;20040;-67
2023/06/11 03:23:15;;;;;;;13.43;12.00;;;17.80;99.90;;;;;;5095635;28;20067;-67
2023/06/11 03:25:42;;;;;;;21.38;11.93;;;17.80;42.10;;;;;;5095349;28;20020;-67
2023/06/11 03:28:07;;;;;;;13.73;11.52;;;17.80;99.90;;;;;;5094949;28;20040;-67
2023/06/11 03:30:33;;;;;;;12.20;11.02;;;17.80;99.90;;;;;;5095242;28;20035;-67
2023/06/11 03:32:58;;;;;;;12.10;11.00;;;17.80;99.90;;;;;;5095202;28;20024;-67
2023/06/11 03:35:24;;;;;;;12.93;11.52;;;17.80;99.90;;;;;;5095343;28;20366;-67
2023/06/11 03:37:49;;;;;;;13.40;10.95;;;17.90;99.90;;;;;;5095134;28;20028;-68
2023/06/11 03:40:15;;;;;;;13.07;11.05;;;17.80;99.90;;;;;;5095162;28;20035;-68
2023/06/11 03:42:41;;;;;;;12.75;11.32;;;17.80;99.90;;;;;;5095120;28;20028;-68
2023/06/11 03:45:07;;;;;;;13.00;11.70;;;17.90;99.90;;;;;;5095177;28;20115;-68
2023/06/11 03:47:32;;;;;;;13.77;12.27;;;17.90;99.90;;;;;;5093854;28;20064;-68
2023/06/11 03:49:58;;;;;;;12.45;10.55;;;17.90;99.90;;;;;;5094623;28;20047;-68
2023/06/11 03:52:23;;;;;;;12.55;11.25;;;18.00;99.90;;;;;;5094375;28;20024;-68
2023/06/11 03:54:49;;;;;;;16.25;10.80;;;18.00;99.90;;;;;;5094758;28;20020;-67
2023/06/11 03:57:17;;;;;;;12.40;11.05;;;18.00;99.90;;;;;;5094783;28;20028;-68
2023/06/11 03:59:43;;;;;;;14.77;11.65;;;18.00;86.90;;;;;;5094762;28;20082;-68
2023/06/11 04:02:08;;;;;;;12.13;10.60;;;18.10;93.80;;;;;;5094645;28;20032;-68
2023/06/11 04:04:34;;;;;;;15.82;11.65;;;18.10;63.80;;;;;;5094799;28;20542;-68
2023/06/11 04:06:59;;;;;;;13.07;11.68;;;18.20;7.80;;;;;;5094559;28;20016;-68
2023/06/11 04:09:25;;;;;;;12.57;11.30;;;18.20;25.10;;;;;;5094654;28;20035;-68
2023/06/11 04:11:51;;;;;;;12.48;10.77;;;18.20;1.00;;;;;;5094336;28;20374;-68
2023/06/11 04:14:16;;;;;;;12.88;11.27;;;18.30;58.60;;;;;;5094574;28;20485;-67
2023/06/11 04:16:42;;;;;;;13.40;12.15;;;18.30;48.90;;;;;;5094547;28;20020;-68
2023/06/11 04:19:07;;;;;;;13.40;11.70;;;18.30;1.00;;;;;;5094258;28;20023;-68
2023/06/11 04:21:33;;;;;;;13.07;11.73;;;18.40;1.00;;;;;;5094445;28;20036;-68
2023/06/11 04:23:59;;;;;;;15.13;11.77;;;18.50;99.90;;;;;;5094462;28;20020;-68
2023/06/11 04:26:25;;;;;;;14.80;11.75;;;18.50;99.90;;;;;;5093916;28;20095;-68
2023/06/11 04:28:52;;;;;;;12.90;11.38;;;18.60;99.90;;;;;;5094024;28;20062;-68
2023/06/11 04:31:18;;;;;;;15.73;11.57;;;18.70;99.90;;;;;;5094333;28;20445;-68
2023/06/11 04:33:45;;;;;;;16.05;11.85;;;19.00;99.90;;;;;;5094065;28;20112;-68
2023/06/11 04:36:11;;;;;;;13.35;11.68;;;19.20;38.60;;;;;;5094239;28;20028;-68
2023/06/11 04:38:38;;;;;;;13.82;10.25;;;19.80;99.90;;;;;;5094227;28;20367;-68
2023/06/11 04:41:05;;;;;;;11.80;10.10;;;21.00;99.90;;;;;;5094108;28;20371;-68
2023/06/11 04:43:33;;;;;;;11.48;9.50;;;22.20;1.00;;;;;;5094060;28;20028;-68
2023/06/11 04:45:59;;;;;;;11.88;10.05;;;23.10;99.90;;;;;;5092823;28;20024;-68
2023/06/11 04:48:27;;;;;;;11.55;10.02;;;24.20;1.00;;;;;;5092493;28;20058;-68
2023/06/11 04:50:53;;;;;;;10.00;8.90;;;24.90;1.00;;;;;;5093761;28;20218;-68
2023/06/11 04:53:24;;;;;;;11.10;9.40;;;25.60;99.90;;;;;;5093736;28;20024;-69
2023/06/11 04:55:51;;;;;;;11.45;9.38;;;25.60;99.90;;;;;;5093708;28;20020;-69
2023/06/11 04:58:20;;;;;;;9.85;8.88;;;25.80;99.90;;;;;;5093865;28;20032;-69
2023/06/11 05:00:47;;;;;;;14.63;9.00;;;26.00;99.90;;;;;;5093823;28;20103;-68
2023/06/11 05:03:12;;;;;;;10.40;9.25;;;26.20;99.90;;;;;;5093393;28;20035;-68
2023/06/11 05:05:38;;;;;;;11.52;9.20;;;26.30;99.90;;;;;;5093366;28;20054;-69
2023/06/11 05:08:04;;;;;;;9.50;8.70;;;26.50;99.90;;;;;;5093462;28;20027;-68
2023/06/11 05:10:29;;;;;;;9.93;9.07;;;26.50;99.60;;;;;;5093671;28;20072;-68
2023/06/11 05:12:55;;;;;;;10.00;9.10;;;26.20;97.10;;;;;;5093351;28;20111;-68
2023/06/11 05:15:20;;;;;;;10.00;8.98;;;25.70;99.90;;;;;;5093433;28;20115;-69
2023/06/11 05:17:46;;;;;;;10.15;9.15;;;26.30;94.10;;;;;;5093586;28;20076;-69
2023/06/11 05:20:12;;;;;;;12.30;9.32;;;26.50;81.40;;;;;;5093434;28;20059;-69
2023/06/11 05:22:38;;;;;;;9.52;8.52;;;26.50;57.80;;;;;;5093419;28;20016;-69
2023/06/11 05:25:04;;;;;;;9.57;8.73;;;26.90;42.90;;;;;;5093466;28;20111;-68
2023/06/11 05:27:29;;;;;;;9.35;8.45;;;27.20;38.10;;;;;;5093196;28;20040;-69
2023/06/11 05:29:56;;;;;;;9.85;8.85;;;27.70;1.00;;;;;;5093283;28;20028;-69
2023/06/11 05:32:22;;;;;;;9.55;8.48;;;27.70;1.00;;;;;;5093252;28;20377;-69
2023/06/11 05:34:49;;;;;;;9.50;8.40;;;27.60;1.00;;;;;;5093463;28;20027;-69
2023/06/11 05:37:15;;;;;;;9.07;8.20;;;27.70;1.00;;;;;;5093222;28;20020;-69
2023/06/11 05:39:41;;;;;;;9.13;8.23;;;27.10;1.00;;;;;;5093247;28;20481;-69
2023/06/11 05:42:07;;;;;;;10.40;8.45;;;27.30;1.00;;;;;;5093169;28;20024;-67
2023/06/11 05:44:32;;;;;;;9.18;8.00;;;28.10;1.00;;;;;;5093495;28;20038;-67
2023/06/11 05:46:58;;;;;;;13.32;8.15;;;28.50;1.00;;;;;;5093294;28;20028;-67
2023/06/11 05:49:23;;;;;;;9.20;8.38;;;29.00;1.00;;;;;;5093069;28;20066;-69
2023/06/11 05:51:49;;;;;;;9.07;8.23;;;28.90;1.00;;;;;;5093095;28;20126;-69
2023/06/11 05:54:15;;;;;;;8.88;8.07;;;29.20;1.00;;;;;;5093076;28;20034;-69
2023/06/11 05:56:40;;;;;;;8.15;7.45;;;29.40;1.00;;;;;;5093324;28;20078;-69
2023/06/11 05:59:06;;;;;;;9.25;8.30;;;29.10;1.00;;;;;;5093092;28;20031;-69
2023/06/11 06:01:33;;;;;;;8.93;7.43;;;29.50;1.00;;;;;;5093062;28;20107;-69
2023/06/11 06:03:59;;;;;;;11.23;8.18;;;29.90;1.00;;;;;;5093181;28;20140;-69
2023/06/11 06:06:25;;;;;;;11.88;8.75;;;29.60;1.00;;;;;;5092932;28;20028;-69
2023/06/11 06:08:51;;;;;;;8.95;8.05;;;29.80;1.00;;;;;;5092740;28;20482;-69
2023/06/11 06:11:16;;;;;;;9.57;8.20;;;29.90;1.00;;;;;;5093079;28;20153;-67
2023/06/11 06:13:42;;;;;;;9.40;8.05;;;30.60;1.00;;;;;;5093538;28;20070;-68
2023/06/11 06:16:07;;;;;;;8.27;7.45;;;30.20;1.00;;;;;;5096912;28;20119;-67
2023/06/11 06:18:34;;;;;;;11.25;7.35;;;31.10;99.90;;;;;;5096888;28;20023;-66
2023/06/11 06:21:00;;;;;;;8.65;7.75;;;30.50;99.90;;;;;;5096603;28;20036;-67
2023/06/11 06:23:25;;;;;;;8.45;7.63;;;31.00;99.90;;;;;;5096678;28;20081;-67
2023/06/11 06:25:51;;;;;;;7.57;6.88;;;30.80;99.90;;;;;;5096569;28;20027;-67
2023/06/11 06:28:17;;;;;;;12.20;8.18;;;30.80;99.90;;;;;;5096334;28;20091;-67
2023/06/11 06:30:43;;;;;;;8.45;7.63;;;30.80;99.90;;;;;;5096391;28;20020;-67
2023/06/11 06:33:08;;;;;;;8.85;7.95;;;30.50;99.90;;;;;;5096474;28;20032;-67
2023/06/11 06:35:34;;;;;;;8.55;7.75;;;30.20;99.90;;;;;;5096178;28;20027;-67
2023/06/11 06:38:00;;;;;;;8.50;7.43;;;31.10;99.90;;;;;;5096380;28;20039;-66
2023/06/11 06:40:26;;;;;;;8.45;7.68;;;31.00;99.90;;;;;;5096240;28;20370;-67
2023/06/11 06:42:51;;;;;;;8.85;7.95;;;32.20;99.90;;;;;;5096222;28;20050;-67
2023/06/11 06:45:17;;;;;;;8.52;7.72;;;32.90;99.90;;;;;;5096185;28;20047;-68
2023/06/11 06:47:42;;;;;;;12.43;7.78;;;33.50;99.90;;;;;;5096089;28;20032;-68
2023/06/11 06:50:08;;;;;;;8.48;7.68;;;32.10;99.90;;;;;;5096141;28;20113;-68
2023/06/11 06:52:34;;;;;;;8.10;7.28;;;32.00;99.90;;;;;;5096155;28;20186;-68
2023/06/11 06:54:59;;;;;;;10.85;7.35;;;32.90;99.90;;;;;;5096233;28;20024;-68
2023/06/11 06:57:25;;;;;;;7.95;7.15;;;32.30;99.90;;;;;;5096134;28;20078;-68
2023/06/11 06:59:50;;;;;;;8.55;7.72;;;31.70;99.90;;;;;;5095891;28;20032;-68
2023/06/11 07:02:16;;;;;;;7.82;7.05;;;31.80;99.90;;;;;;5095823;28;20408;-68
2023/06/11 07:04:42;;;;;;;7.75;7.15;;;32.10;99.90;;;;;;5095865;28;20032;-68
2023/06/11 07:07:07;;;;;;;7.80;7.20;;;33.10;99.90;;;;;;5095901;28;20032;-68
2023/06/11 07:09:33;;;;;;;7.80;7.07;;;33.10;99.90;;;;;;5095941;28;20077;-68
2023/06/11 07:11:58;;;;;;;10.35;7.53;;;33.50;99.90;;;;;;5095629;28;20367;-68
2023/06/11 07:14:24;;;;;;;8.02;7.32;;;33.40;99.90;;;;;;5095760;28;20028;-68
2023/06/11 07:16:49;;;;;;;8.32;7.50;;;33.40;99.90;;;;;;5095783;28;20051;-68
2023/06/11 07:19:15;;;;;;;10.00;7.63;;;33.00;99.90;;;;;;5095906;28;20477;-68
2023/06/11 07:21:40;;;;;;;8.20;7.40;;;33.90;99.90;;;;;;5095265;28;20024;-68
2023/06/11 07:24:07;;;;;;;7.55;6.80;;;34.00;99.90;;;;;;5095725;28;20041;-68
2023/06/11 07:26:33;;;;;;;7.53;6.82;;;33.60;1.00;;;;;;5095353;28;20020;-69
2023/06/11 07:28:59;;;;;;;7.35;6.65;;;34.00;1.00;;;;;;5095166;28;20069;-69
2023/06/11 07:31:25;;;;;;;7.47;6.70;;;34.90;99.90;;;;;;5095251;28;20016;-69
2023/06/11 07:33:51;;;;;;;9.25;6.70;;;34.70;99.90;;;;;;5095229;28;20465;-69
2023/06/11 07:36:17;;;;;;;7.60;6.90;;;35.00;99.90;;;;;;5095357;28;20022;-69
2023/06/11 07:38:44;;;;;;;7.45;6.75;;;35.10;99.90;;;;;;5095159;28;20028;-69
2023/06/11 07:41:10;;;;;;;8.38;7.53;;;35.30;99.90;;;;;;5095341;28;20032;-69
2023/06/11 07:43:36;;;;;;;8.07;6.80;;;35.00;99.90;;;;;;5095228;28;20024;-68
2023/06/11 07:46:03;;;;;;;8.65;7.85;;;34.00;99.90;;;;;;5095267;28;20027;-69
2023/06/11 07:48:29;;;;;;;8.07;7.28;;;33.40;99.90;;;;;;5094573;28;20402;-69
2023/06/11 07:50:55;;;;;;;8.30;7.35;;;33.20;99.90;;;;;;5094736;28;20024;-69
2023/06/11 07:53:21;;;;;;;11.27;7.70;;;33.60;99.90;;;;;;5095030;28;20144;-69
2023/06/11 07:55:49;;;;;;;9.02;7.53;;;33.80;99.90;;;;;;5094778;28;20020;-69
2023/06/11 07:58:15;;;;;;;8.23;7.47;;;34.00;99.90;;;;;;5094878;28;20028;-69
2023/06/11 08:00:41;;;;;;;7.82;7.13;;;34.50;99.90;;;;;;5094794;28;20538;-68
2023/06/11 08:03:08;;;;;;;8.50;7.57;;;34.20;99.90;;;;;;5094693;28;20111;-69
2023/06/11 08:05:33;;;;;;;8.00;7.30;;;34.10;1.00;;;;;;5094698;28;20039;-68
2023/06/11 08:07:59;;;;;;;8.38;7.50;;;34.50;1.00;;;;;;5094205;28;20020;-69
2023/06/11 08:10:25;;;;;;;8.25;7.43;;;34.80;1.00;;;;;;5094687;28;20115;-68
2023/06/11 08:12:51;;;;;;;9.85;7.20;;;34.40;99.90;;;;;;5094304;28;20114;-69
2023/06/11 08:15:17;;;;;;;7.53;6.88;;;35.00;1.00;;;;;;5094581;28;20024;-69
2023/06/11 08:17:43;;;;;;;8.57;7.70;;;35.50;1.00;;;;;;5094601;28;20043;-69
2023/06/11 08:20:09;;;;;;;8.20;7.38;;;34.20;1.00;;;;;;5094384;28;20473;-69
2023/06/11 08:22:35;;;;;;;8.60;7.63;;;34.30;1.00;;;;;;5094332;28;20397;-69
2023/06/11 08:25:00;;;;;;;7.85;7.18;;;34.20;99.90;;;;;;5094440;28;20440;-69
2023/06/11 08:27:26;;;;;;;9.30;7.75;;;34.40;1.00;;;;;;5093800;28;20054;-69
2023/06/11 08:29:51;;;;;;;12.80;7.93;;;34.50;1.00;;;;;;5093939;28;20470;-69
2023/06/11 08:32:17;;;;;;;7.90;7.20;;;34.60;1.00;;;;;;5094135;28;20077;-69
2023/06/11 08:34:43;;;;;;;8.45;7.65;;;35.40;99.90;;;;;;5093885;28;20015;-69
2023/06/11 08:37:08;;;;;;;8.40;7.57;;;35.90;99.90;;;;;;5093735;28;20099;-69
2023/06/11 08:39:34;;;;;;;8.32;7.53;;;35.50;99.90;;;;;;5094002;28;20024;-69
2023/06/11 08:41:59;;;;;;;8.70;7.80;;;35.30;99.90;;;;;;5094114;28;20024;-69
2023/06/11 08:44:25;;;;;;;7.80;7.10;;;34.60;99.90;;;;;;5093908;28;20409;-69
2023/06/11 08:46:51;;;;;;;7.82;7.00;;;34.80;99.90;;;;;;5094023;28;20024;-69
2023/06/11 08:49:22;;;;;;;8.20;7.35;;;34.80;1.00;;;;;;5093974;28;20061;-69
2023/06/11 08:51:48;;;;;;;8.20;7.47;;;35.40;99.90;;;;;;5093885;28;20027;-69
2023/06/11 08:54:15;;;;;;;9.82;7.45;;;35.50;99.90;;;;;;5093906;28;20030;-69
2023/06/11 08:56:41;;;;;;;8.85;7.78;;;35.30;99.90;;;;;;5093431;28;20024;-69
2023/06/11 08:59:07;;;;;;;9.60;7.75;;;35.30;99.90;;;;;;5093654;28;20035;-69
2023/06/11 09:01:33;;;;;;;9.88;7.40;;;34.80;99.90;;;;;;5092636;28;20067;-69
2023/06/11 09:03:59;;;;;;;9.73;7.50;;;34.90;99.90;;;;;;5093657;28;20039;-69
2023/06/11 09:06:25;;;;;;;9.73;7.63;;;34.70;99.90;;;;;;5093734;28;20030;-69
2023/06/11 09:09:02;;;;;;;8.75;7.53;;;35.30;99.90;;;;;;5093412;28;20032;-69
2023/06/11 09:11:36;;;;;;;11.00;7.10;;;35.20;99.90;;;;;;5093401;28;20107;-69
2023/06/11 09:14:03;;;;;;;10.20;6.68;;;36.20;99.90;;;;;;5093470;28;20024;-69
2023/06/11 09:16:37;;;;;;;8.70;6.95;;;35.70;99.90;;;;;;5093411;28;20074;-69
2023/06/11 09:19:02;;;;;;;8.40;6.70;;;35.70;99.90;;;;;;5093733;28;20032;-69
2023/06/11 09:21:28;;;;;;;8.32;6.72;;;35.70;99.90;;;;;;5093236;28;20024;-69
2023/06/11 09:23:54;;;;;;;6.97;6.32;;;36.30;99.90;;;;;;5093520;28;20028;-69
2023/06/11 09:26:19;;;;;;;7.65;7.00;;;36.30;99.90;;;;;;5093378;28;20086;-69
2023/06/11 09:28:46;;;;;;;8.40;7.10;;;35.50;99.90;;;;;;5092792;28;20044;-69
2023/06/11 09:31:12;;;;;;;10.15;7.28;;;35.20;99.90;;;;;;5093350;28;20062;-69
2023/06/11 09:33:38;;;;;;;8.10;7.20;;;34.90;99.90;;;;;;5093359;28;20055;-69
2023/06/11 09:36:04;;;;;;;7.60;6.25;;;35.90;99.90;;;;;;5093526;28;20028;-69
2023/06/11 09:38:34;;;;;;;7.60;6.75;;;36.30;99.90;;;;;;5093215;28;20080;-69
2023/06/11 09:41:00;;;;;;;7.43;6.82;;;35.60;99.90;;;;;;5093333;28;20024;-69
2023/06/11 09:43:25;;;;;;;7.15;6.55;;;35.70;1.00;;;;;;5092985;28;20036;-69
2023/06/11 09:45:53;;;;;;;7.28;6.60;;;35.70;99.90;;;;;;5093374;28;20477;-69
2023/06/11 09:48:20;;;;;;;9.70;7.10;;;35.60;99.90;;;;;;5093084;28;20024;-69
2023/06/11 09:50:49;;;;;;;7.25;6.60;;;34.90;99.90;;;;;;5097287;28;20103;-69
2023/06/11 09:53:15;;;;;;;10.30;6.93;;;34.60;99.90;;;;;;5097091;28;20028;-69
2023/06/11 09:55:41;;;;;;;8.63;7.07;;;34.60;99.90;;;;;;5097195;28;20024;-69
2023/06/11 09:58:08;;;;;;;9.10;6.97;;;34.80;99.90;;;;;;5097168;28;20024;-69
2023/06/11 10:00:35;;;;;;;7.78;6.95;;;34.40;99.90;;;;;;5097314;28;20031;-69
2023/06/11 10:03:01;;;;;;;8.05;6.45;;;34.90;99.90;;;;;;5095965;28;20020;-69
2023/06/11 10:05:27;;;;;;;9.38;7.10;;;34.50;99.90;;;;;;5096780;28;20088;-69
2023/06/11 10:08:00;;;;;;;9.93;7.13;;;34.60;99.90;;;;;;5096864;28;20028;-69
2023/06/11 10:10:26;;;;;;;6.90;6.20;;;34.00;99.90;;;;;;5096843;28;20124;-69
2023/06/11 10:12:53;;;;;;;8.43;6.85;;;33.90;99.90;;;;;;5097006;28;20020;-69
2023/06/11 10:15:22;;;;;;;6.97;6.28;;;34.40;99.90;;;;;;5095614;28;20020;-69
2023/06/11 10:17:50;;;;;;;8.88;6.53;;;34.30;99.90;;;;;;5096761;28;20031;-69
2023/06/11 10:20:25;;;;;;;7.07;6.38;;;34.50;99.90;;;;;;5096884;28;20040;-69
2023/06/11 10:23:02;;;;;;;10.68;6.65;;;34.90;99.90;;;;;;5095563;28;20542;-69
2023/06/11 10:25:36;;;;;;;8.32;6.45;;;34.80;99.90;;;;;;5096544;28;20081;-69
2023/06/11 10:28:01;;;;;;;9.40;6.30;;;34.20;99.90;;;;;;5096286;28;20100;-69
2023/06/11 10:30:27;;;;;;;9.55;6.28;;;34.40;99.90;;;;;;5096645;28;20491;-69
2023/06/11 10:32:56;;;;;;;7.03;6.32;;;34.50;1.00;;;;;;5096576;28;20484;-68
2023/06/11 10:35:24;;;;;;;8.75;6.80;;;33.80;1.00;;;;;;5096696;28;20506;-69
2023/06/11 10:37:50;;;;;;;11.02;6.20;;;34.10;1.00;;;;;;5096063;28;20033;-69
2023/06/11 10:40:16;;;;;;;6.43;5.88;;;34.00;1.00;;;;;;5095285;28;20031;-69
2023/06/11 10:42:43;;;;;;;10.95;6.93;;;33.90;1.00;;;;;;5096510;28;20374;-69
2023/06/11 10:45:10;;;;;;;8.60;6.40;;;33.00;99.90;;;;;;5096396;28;20489;-69
2023/06/11 10:47:46;;;;;;;10.52;7.03;;;33.70;99.90;;;;;;5095859;28;20031;-69
2023/06/11 10:50:14;;;;;;;8.25;6.85;;;33.50;99.90;;;;;;5095939;28;20030;-69
2023/06/11 10:52:58;;;;;;;7.70;7.00;;;32.70;99.90;;;;;;5096368;28;20545;-69
2023/06/11 10:55:29;;;;;;;11.05;7.28;;;32.30;1.00;;;;;;5096217;28;20026;-69
2023/06/11 10:57:57;;;;;;;8.65;6.70;;;32.00;1.00;;;;;;5095954;28;20024;-69
2023/06/11 11:00:28;;;;;;;11.25;6.90;;;32.00;99.90;;;;;;5095418;28;20024;-69
2023/06/11 11:02:56;;;;;;;7.88;7.00;;;31.70;1.00;;;;;;5096110;28;20077;-69
2023/06/11 11:05:22;;;;;;;9.15;6.95;;;31.30;99.90;;;;;;5096032;28;20074;-69
2023/06/11 11:07:47;;;;;;;9.50;7.78;;;31.00;99.90;;;;;;5095765;28;20490;-68
2023/06/11 11:10:19;;;;;;;8.13;6.65;;;31.00;99.90;;;;;;5096019;28;20032;-69
2023/06/11 11:12:47;;;;;;;7.40;6.70;;;31.30;99.90;;;;;;5095782;28;20541;-69
2023/06/11 11:15:13;;;;;;;7.45;6.30;;;31.70;99.90;;;;;;5095701;28;20109;-69
2023/06/11 11:17:40;;;;;;;7.63;6.40;;;31.60;99.90;;;;;;5095924;28;20031;-69
2023/06/11 11:20:10;;;;;;;11.18;6.78;;;31.60;99.90;;;;;;5095583;28;20402;-69
2023/06/11 11:22:37;;;;;;;9.40;7.07;;;31.30;99.90;;;;;;5095695;28;20537;-69
2023/06/11 11:25:04;;;;;;;8.05;7.22;;;30.80;99.90;;;;;;5095430;28;20385;-69
2023/06/11 11:27:30;;;;;;;9.30;6.63;;;31.10;99.90;;;;;;5095103;28;20044;-69
2023/06/11 11:30:02;;;;;;;11.90;6.93;;;30.90;99.90;;;;;;5095512;28;20041;-69
2023/06/11 11:32:32;;;;;;;8.40;7.28;;;31.30;99.90;;;;;;5095468;28;20028;-69
2023/06/11 11:34:59;;;;;;;9.25;6.57;;;31.30;99.90;;;;;;5095175;28;20103;-69
2023/06/11 11:37:28;;;;;;;10.27;6.90;;;30.80;99.90;;;;;;5095267;28;20438;-69
2023/06/11 11:39:54;;;;;;;9.57;6.28;;;30.80;99.90;;;;;;5094962;28;20065;-69
2023/06/11 11:42:20;;;;;;;8.77;7.00;;;30.60;99.90;;;;;;5095343;28;20024;-69
2023/06/11 11:44:46;;;;;;;9.13;6.65;;;30.80;99.90;;;;;;5095067;28;20053;-69
2023/06/11 11:47:12;;;;;;;9.48;6.97;;;31.10;99.90;;;;;;5095139;28;20486;-69
2023/06/11 11:49:38;;;;;;;11.00;6.70;;;31.30;99.90;;;;;;5095162;28;20024;-69
2023/06/11 11:52:06;;;;;;;9.80;7.18;;;30.90;99.90;;;;;;5095359;28;20412;-69
2023/06/11 11:54:32;;;;;;;8.85;6.80;;;31.00;99.90;;;;;;5095091;28;20058;-69
2023/06/11 11:57:02;;;;;;;7.72;6.72;;;31.00;99.90;;;;;;5094991;28;20058;-68
2023/06/11 11:59:28;;;;;;;8.18;6.63;;;30.80;99.90;;;;;;5094719;28;20031;-68
2023/06/11 12:01:58;;;;;;;7.43;6.60;;;31.10;99.90;;;;;;5094733;28;20428;-69
2023/06/11 12:04:45;;;;;;;8.07;6.80;;;31.50;99.90;;;;;;5094835;28;20114;-69
2023/06/11 12:07:13;;;;;;;15.43;7.30;;;31.10;99.90;;;;;;5094290;28;20024;-69
2023/06/11 12:09:39;;;;;;;8.07;6.75;;;30.90;99.90;;;;;;5094760;28;20028;-68
2023/06/11 12:12:07;;;;;;;8.10;6.70;;;30.90;99.90;;;;;;5093705;28;20023;-69
2023/06/11 12:14:33;;;;;;;12.15;7.32;;;31.30;99.90;;;;;;5094447;28;20371;-69
2023/06/11 12:16:58;;;;;;;11.18;6.75;;;31.60;99.90;;;;;;5094536;28;20028;-69
2023/06/11 12:19:24;;;;;;;7.63;6.78;;;31.40;99.90;;;;;;5094447;28;20123;-69
2023/06/11 12:21:51;;;;;;;9.80;6.82;;;30.90;99.90;;;;;;5094551;28;20051;-68
2023/06/11 12:24:16;;;;;;;8.93;7.60;;;30.90;99.90;;;;;;5094332;28;20481;-68
2023/06/11 12:26:46;;;;;;;8.15;7.28;;;30.70;99.90;;;;;;5094265;28;20032;-69
2023/06/11 12:29:11;;;;;;;10.13;7.97;;;30.70;99.90;;;;;;5094167;28;20032;-68
2023/06/11 12:31:38;;;;;;;8.02;7.22;;;30.80;99.90;;;;;;5094416;28;20024;-69
2023/06/11 12:34:04;;;;;;;7.18;6.53;;;31.20;99.90;;;;;;5094259;28;20028;-69
2023/06/11 12:36:32;;;;;;;8.45;6.80;;;31.30;99.90;;;;;;5094247;28;20020;-69
2023/06/11 12:38:59;;;;;;;9.98;7.22;;;31.10;99.90;;;;;;5093982;28;20562;-69
2023/06/11 12:41:25;;;;;;;10.63;7.60;;;30.90;99.90;;;;;;5093944;28;20093;-69